Notice: Undefined index: name in /home/huttweat/public_html/pwsWD/metar_load_funct.php on line 61

Notice: Undefined index: humidity_percent in /home/huttweat/public_html/pwsWD/metar_load_funct.php on line 103
Weather34 Metar Aviation Weather Data Popup
14°C Temp
'.PHP_EOL;
13°C Dewpoint
% Humidity
Temperature
24 KM/H
15 MPH
13 KTS
20°
North North
East

Wind
Light Rain
Pressure 1020.92 (hPa)- 30.15 (in)
Visibility 5.6 (mi) - 9 (km)

Current Conditions
NZWN
Location 8(km)
Metar:
NZWN 201930Z AUTO 02013KT 9000 -RA SCT013/// BKN021/// BKN070/// 14/13 Q1021 TEMPO 6000 RA BKN012 FEW020CB

Notice: Undefined offset: 1 in /home/huttweat/public_html/pwsWD/metar_popup.php on line 285

Notice: Undefined offset: 1 in /home/huttweat/public_html/pwsWD/metar_popup.php on line 287

Warning: gmmktime() expects parameter 1 to be integer, string given in /home/huttweat/public_html/pwsWD/metar_popup.php on line 288
Thu 1st January 12:00 pm

Airport
  Metar Aviation API Data Provided by https://www.checkwx.com/